Latest Coastal Weather Observations for Portland Harbour

IDS60701

Issued at 8:41 pm CDT Sunday 4 December 2016 (issued every 10 minutes, with the page automatically refreshed every 10 minutes)

About coastal observations | Map of coastal stations | Coastal observations for SA | Marine services | Other Formats
Station Details ID: 090192 Name: PORTLAND NTC AWS Lat: -38.34 Lon: 141.61 Height: 0.0 m
Data from the previous 72 hours. | See also: Recent months for locations in South Australia
Date/Time
CDT
Temp
°C
Wind Pressure Rain since
9am
mm
Weather Cloud Vis
km
Sea
Height
m
Swell
Dir  Spd
kts
Gust
kts
hPa Trend Height
m
Period
s
Dir
04/08:30pm 21.5 NNW 13 15 1001.1 - - - - - - - - -
04/08:00pm 21.8 N 14 18 1001.1 - - - - - - - - -
04/07:30pm 22.2 N 18 24 1001.1 - - - - - - - - -
04/07:00pm 22.1 N 19 24 1001.2 - - - - - - - - -
04/06:30pm 22.1 N 22 29 1001.0 - - - - - - - - -
04/06:00pm 21.5 N 20 26 1001.2 - - - - - - - - -
04/05:30pm 20.2 N 13 17 1001.7 - - - - - - - - -
04/05:00pm 19.6 N 17 21 1002.2 - - - - - - - - -
04/04:30pm 19.9 NNW 15 20 1003.3 - - - - - - - - -
04/04:00pm 21.9 NNW 29 41 1004.5 - - - - - - - - -
04/03:54pm 23.9 NNW 28 41 1003.7 - - - - - - - - -
04/03:49pm 24.1 NNW 24 38 1003.7 - - - - - - - - -
04/03:35pm 26.1 NNW 20 31 1003.6 - - - - - - - - -
04/03:30pm 27.4 NNW 18 25 1003.6 - - - - - - - - -
04/03:00pm 27.3 WNW 9 15 1003.4 - - - - - - - - -
04/02:30pm 27.8 NW 19 30 1003.8 - - - - - - - - -
04/02:22pm 27.8 NW 17 34 1003.9 - - - - - - - - -
04/02:21pm 27.8 NW 15 34 1003.9 - - - - - - - - -
04/02:14pm 25.1 NE 6 23 1003.9 - - - - - - - - -
04/02:00pm 18.3 ENE 2 3 1004.3 - - - - - - - - -
04/01:30pm 17.8 NE 1 4 1004.8 - - - - - - - - -
04/01:00pm 17.4 NNE 2 3 1005.2 - - - - - - - - -
04/12:30pm 17.1 NNE 4 7 1005.5 - - - - - - - - -
04/12:00pm 17.2 ESE 4 6 1005.6 - - - - - - - - -
04/11:30am 16.9 ESE 5 6 1006.1 - - - - - - - - -
04/11:00am 16.3 ESE 4 5 1006.6 - - - - - - - - -
04/10:30am 15.4 E 3 4 1006.8 - - - - - - - - -
04/10:00am 14.8 ENE 5 6 1006.9 - - - - - - - - -
04/09:30am 14.8 NE 4 5 1007.4 - - - - - - - - -
04/09:00am 14.4 ENE 2 3 1007.7 - - - - - - - - -
04/08:30am 14.5 NE 2 3 1007.9 - - - - - - - - -
04/08:00am 13.3 NNE 2 3 1008.1 - - - - - - - - -
04/07:30am 13.1 N 3 5 1008.3 - - - - - - - - -
04/07:00am 12.9 NNW 2 4 1008.3 - - - - - - - - -
04/06:30am 12.8 NNE 4 5 1008.4 - - - - - - - - -
04/06:00am 12.6 NNE 5 6 1008.5 - - - - - - - - -
04/05:30am 13.0 N 5 7 1008.7 - - - - - - - - -
04/05:00am 13.6 NE 6 9 1008.5 - - - - - - - - -
04/04:30am 13.7 ENE 9 11 1008.7 - - - - - - - - -
04/04:00am 13.8 ENE 11 13 1009.0 - - - - - - - - -
04/03:30am 14.1 ENE 12 13 1009.3 - - - - - - - - -
04/03:00am 14.4 E 10 12 1009.9 - - - - - - - - -
04/02:30am 15.0 ENE 11 13 1009.9 - - - - - - - - -
04/02:00am 15.3 ENE 12 14 1009.7 - - - - - - - - -
04/01:30am 15.9 ENE 13 15 1010.4 - - - - - - - - -
04/01:00am 15.6 ESE 9 12 1011.1 - - - - - - - - -
04/12:30am 15.6 ESE 10 14 1011.6 - - - - - - - - -
04/12:00am 15.5 ESE 10 15 1011.9 - - - - - - - - -
 
Date/Time
CDT
Temp
°C
Wind Pressure Rain since
9am
mm
Weather Cloud Vis
km
Sea
Height
m
Swell
Dir  Spd
kts
Gust
kts
hPa Trend Height
m
Period
s
Dir
03/11:30pm 15.5 ESE 10 13 1012.1 - - - - - - - - -
03/11:00pm 15.4 ESE 12 17 1012.6 - - - - - - - - -
03/10:30pm 15.5 ESE 13 16 1013.1 - - - - - - - - -
03/10:00pm 15.4 ESE 12 15 1013.7 - - - - - - - - -
03/09:30pm 15.5 ESE 11 14 1013.8 - - - - - - - - -
03/09:00pm 15.6 ESE 12 15 1013.8 - - - - - - - - -
03/08:30pm 15.5 ESE 11 14 1013.7 - - - - - - - - -
03/08:00pm 15.7 ESE 11 14 1013.8 - - - - - - - - -
03/07:30pm 15.6 SE 11 13 1013.6 - - - - - - - - -
03/07:00pm 15.7 SE 12 14 1013.6 - - - - - - - - -
03/06:30pm 15.7 SE 11 14 1013.9 - - - - - - - - -
03/06:00pm 15.8 SE 10 15 1013.8 - - - - - - - - -
03/05:30pm 15.9 SE 11 13 1013.8 - - - - - - - - -
03/05:00pm 16.2 SE 11 13 1013.8 - - - - - - - - -
03/04:30pm 16.1 SE 11 14 1014.1 - - - - - - - - -
03/04:00pm 15.8 SE 11 14 1014.1 - - - - - - - - -
03/03:30pm 15.8 SE 12 14 1014.2 - - - - - - - - -
03/03:00pm 16.2 SE 12 14 1014.3 - - - - - - - - -
03/02:30pm 16.1 SE 12 14 1014.3 - - - - - - - - -
03/02:00pm 16.0 SE 11 14 1014.6 - - - - - - - - -
03/01:30pm 15.8 SE 11 13 1014.8 - - - - - - - - -
03/01:00pm 15.8 ESE 10 11 1015.0 - - - - - - - - -
03/12:30pm 15.4 SE 9 10 1015.3 - - - - - - - - -
03/12:00pm 15.3 ESE 8 10 1015.6 - - - - - - - - -
03/11:30am 15.2 ESE 7 8 1015.8 - - - - - - - - -
03/11:00am 14.5 ESE 5 7 1015.9 - - - - - - - - -
03/10:30am 14.2 E 5 7 1016.2 - - - - - - - - -
03/10:00am 13.9 ENE 4 5 1016.4 - - - - - - - - -
03/09:30am 13.8 ENE 4 6 1016.3 - - - - - - - - -
03/09:00am 13.5 NE 4 5 1016.3 - - - - - - - - -
03/08:30am 13.3 NE 3 4 1016.2 - - - - - - - - -
03/08:00am 12.8 N 2 3 1015.9 - - - - - - - - -
03/07:30am 12.3 NW 1 3 1015.8 - - - - - - - - -
03/07:00am 10.3 WSW 2 3 1015.5 - - - - - - - - -
03/06:30am 8.3 W 2 3 1015.5 - - - - - - - - -
03/06:00am 8.4 WSW 2 3 1015.1 - - - - - - - - -
03/05:30am 7.6 WSW 2 4 1015.0 - - - - - - - - -
03/05:00am 7.9 SW 4 5 1014.7 - - - - - - - - -
03/04:30am 7.8 WSW 4 5 1014.5 - - - - - - - - -
03/04:00am 8.6 WSW 3 4 1014.6 - - - - - - - - -
03/03:30am 8.7 WSW 3 4 1014.7 - - - - - - - - -
03/03:00am 9.1 WSW 4 5 1014.9 - - - - - - - - -
03/02:30am 9.3 WSW 3 4 1015.0 - - - - - - - - -
03/02:00am 10.2 SW 3 4 1015.3 - - - - - - - - -
03/01:30am 10.3 SW 3 4 1015.6 - - - - - - - - -
03/01:00am 11.5 W 1 3 1015.8 - - - - - - - - -
03/12:30am 11.6 W 2 3 1016.0 - - - - - - - - -
03/12:00am 11.8 WNW 3 3 1016.5 - - - - - - - - -
 
Date/Time
CDT
Temp
°C
Wind Pressure Rain since
9am
mm
Weather Cloud Vis
km
Sea
Height
m
Swell
Dir  Spd
kts
Gust
kts
hPa Trend Height
m
Period
s
Dir
02/11:30pm 12.2 W 2 3 1016.3 - - - - - - - - -
02/11:00pm 13.0 SW 6 8 1016.2 - - - - - - - - -
02/10:30pm 12.1 WSW 3 7 1016.3 - - - - - - - - -
02/10:00pm 13.1 SW 7 9 1016.3 - - - - - - - - -
02/09:30pm 13.1 W 3 5 1016.3 - - - - - - - - -
02/09:00pm 13.9 WSW 5 8 1016.0 - - - - - - - - -
02/08:30pm 14.3 SW 7 9 1015.9 - - - - - - - - -
02/08:00pm 14.6 W 5 8 1015.6 - - - - - - - - -
02/07:30pm 14.5 W 7 9 1015.3 - - - - - - - - -
02/07:00pm 15.1 W 8 12 1015.1 - - - - - - - - -
02/06:30pm 15.3 W 10 13 1015.0 - - - - - - - - -
02/06:00pm 15.3 WSW 8 12 1014.9 - - - - - - - - -
02/05:30pm 15.7 SW 11 17 1014.8 - - - - - - - - -
02/05:00pm 15.5 SW 11 16 1014.7 - - - - - - - - -
02/04:30pm 15.3 SW 12 18 1014.6 - - - - - - - - -
02/04:00pm 16.0 SW 12 19 1014.5 - - - - - - - - -
02/03:30pm 15.6 WSW 10 14 1014.5 - - - - - - - - -
02/03:00pm 15.9 WSW 10 15 1014.4 - - - - - - - - -
02/02:30pm 16.3 SW 11 16 1014.3 - - - - - - - - -
02/02:00pm 15.3 SW 12 18 1014.4 - - - - - - - - -
02/01:30pm 15.7 WSW 13 20 1014.2 - - - - - - - - -
02/01:00pm 15.3 SSW 14 24 1014.1 - - - - - - - - -
02/12:30pm 14.9 SW 11 18 1014.1 - - - - - - - - -
02/12:00pm 14.9 SW 13 18 1014.0 - - - - - - - - -
02/11:30am 14.9 SW 11 17 1013.8 - - - - - - - - -
02/11:00am 14.7 SSW 13 18 1013.4 - - - - - - - - -
02/10:30am 14.6 SSW 13 19 1013.3 - - - - - - - - -
02/10:00am 14.8 SW 12 16 1013.0 - - - - - - - - -
02/09:30am 15.1 SW 12 19 1012.7 - - - - - - - - -
02/09:00am 14.8 SW 12 17 1012.4 - - - - - - - - -
02/08:30am 14.4 SW 14 19 1012.0 - - - - - - - - -
02/08:00am 14.5 SW 13 16 1011.6 - - - - - - - - -
02/07:30am 14.4 SW 10 16 1011.1 - - - - - - - - -
02/07:00am 14.2 SW 6 9 1010.6 - - - - - - - - -
02/06:30am 13.8 WSW 5 8 1010.2 - - - - - - - - -
02/06:00am 13.7 SW 8 11 1009.8 - - - - - - - - -
02/05:30am 13.4 WSW 6 9 1009.2 - - - - - - - - -
02/05:00am 12.5 WNW 3 5 1008.7 - - - - - - - - -
02/04:30am 11.9 W 4 6 1008.3 - - - - - - - - -
02/04:00am 12.2 WNW 4 6 1008.0 - - - - - - - - -
02/03:30am 12.4 NNW 7 10 1007.9 - - - - - - - - -
02/03:00am 11.6 WNW 3 4 1008.1 - - - - - - - - -
02/02:30am 11.2 W 3 4 1008.2 - - - - - - - - -
02/02:00am 11.4 WNW 4 6 1008.0 - - - - - - - - -
02/01:30am 11.6 WNW 5 7 1008.2 - - - - - - - - -
02/01:00am 11.7 WNW 4 6 1008.3 - - - - - - - - -
02/12:30am 12.0 WNW 5 7 1008.3 - - - - - - - - -
02/12:00am 12.1 WNW 3 4 1008.3 - - - - - - - - -
 
Date/Time
CDT
Temp
°C
Wind Pressure Rain since
9am
mm
Weather Cloud Vis
km
Sea
Height
m
Swell
Dir  Spd
kts
Gust
kts
hPa Trend Height
m
Period
s
Dir
01/11:30pm 12.5 W 3 4 1008.5 - - - - - - - - -
01/11:00pm 13.1 NW 3 5 1008.4 - - - - - - - - -
01/10:30pm 13.6 NW 4 5 1008.5 - - - - - - - - -
01/10:00pm 14.1 NW 4 5 1008.4 - - - - - - - - -
01/09:30pm 14.3 WNW 3 4 1008.3 - - - - - - - - -
01/09:00pm 14.9 W 4 7 1007.9 - - - - - - - - -
01/08:30pm 15.1 W 5 7 1007.8 - - - - - - - - -

Other Formats:

Comma delimited format used in spreadsheet applications
http://www.bom.gov.au/fwo/IDS60701/IDS60701.95826.axf

JavaScript Object Notation format (JSON) in row-major order
http://www.bom.gov.au/fwo/IDS60701/IDS60701.95826.json